createdAt,value
2019-01-21T00:02:01.775Z,19.03
2019-01-21T00:07:06.573Z,19.90
2019-01-21T00:12:11.247Z,18.20
2019-01-21T00:17:22.298Z,20.50
2019-01-21T00:22:22.692Z,19.45
2019-01-21T00:27:27.634Z,19.40
2019-01-21T00:32:32.328Z,20.50
2019-01-21T00:37:37.027Z,19.60
2019-01-21T00:42:41.917Z,19.77
2019-01-21T00:47:46.606Z,19.57
2019-01-21T00:52:51.286Z,20.30
2019-01-21T00:57:55.967Z,20.03
2019-01-21T01:03:00.797Z,18.13
2019-01-21T01:08:05.975Z,19.73
2019-01-21T01:13:10.713Z,19.17
2019-01-21T01:18:15.464Z,17.43
2019-01-21T01:23:20.205Z,18.47
2019-01-21T01:28:24.889Z,19.13
2019-01-21T01:33:29.560Z,16.83
2019-01-21T01:38:34.247Z,18.77
2019-01-21T01:43:39.162Z,17.53
2019-01-21T01:48:43.824Z,18.23
2019-01-21T01:53:48.924Z,19.60
2019-01-21T01:58:53.800Z,18.93
2019-01-21T02:03:58.866Z,19.30
2019-01-21T02:09:07.556Z,19.80
2019-01-21T02:14:12.606Z,18.50
2019-01-21T02:19:19.462Z,18.43
2019-01-21T02:24:25.428Z,19.73
2019-01-21T02:30:05.043Z,18.50
2019-01-21T02:35:37.279Z,18.35
2019-01-21T02:40:53.996Z,17.60
2019-01-21T02:46:58.373Z,18.70
2019-01-21T02:52:15.031Z,18.43
2019-01-21T02:58:01.494Z,19.07
2019-01-21T03:03:48.691Z,18.40
2019-01-21T03:09:26.759Z,19.13
2019-01-21T03:14:48.038Z,18.33
2019-01-21T03:20:20.189Z,17.47
2019-01-21T03:26:12.699Z,19.50
2019-01-21T03:31:33.028Z,18.37
2019-01-21T03:36:55.360Z,18.43
2019-01-21T03:42:10.523Z,18.97
2019-01-21T03:47:29.847Z,19.27
2019-01-21T03:53:13.512Z,18.13
2019-01-21T03:58:33.846Z,18.80
2019-01-21T04:04:06.946Z,17.60
2019-01-21T04:09:37.768Z,18.23
2019-01-21T04:15:42.556Z,18.47
2019-01-21T04:21:19.588Z,17.33
2019-01-21T04:27:02.514Z,19.60
2019-01-21T04:32:24.796Z,17.53
2019-01-21T04:38:04.945Z,18.67
2019-01-21T04:43:28.862Z,17.98
2019-01-21T04:49:13.044Z,19.55
2019-01-21T04:54:29.220Z,20.47
2019-01-21T05:00:24.220Z,19.33
2019-01-21T05:06:07.557Z,18.33
2019-01-21T05:11:54.163Z,17.32
2019-01-21T05:17:42.849Z,19.23
2019-01-21T05:23:38.188Z,19.77
2019-01-21T05:29:06.253Z,21.10
2019-01-21T05:34:21.773Z,20.50
2019-01-21T05:40:07.865Z,19.93
2019-01-21T05:45:50.207Z,20.07
2019-01-21T05:51:35.389Z,20.60
2019-01-21T05:57:12.336Z,20.33
2019-01-21T06:02:52.921Z,20.40
2019-01-21T06:08:31.373Z,20.60
2019-01-21T06:14:04.207Z,20.60
2019-01-21T06:19:36.613Z,19.80
2019-01-21T06:25:03.458Z,18.47
2019-01-21T06:30:37.817Z,18.73
2019-01-21T06:36:20.573Z,19.73
2019-01-21T06:41:36.927Z,18.80
2019-01-21T06:47:31.831Z,18.97
2019-01-21T06:53:07.493Z,18.93
2019-01-21T06:58:57.078Z,18.30
2019-01-21T07:04:32.219Z,18.20
2019-01-21T07:09:49.408Z,18.20
2019-01-21T07:15:16.832Z,20.03
2019-01-21T07:21:18.020Z,18.33
2019-01-21T07:27:01.216Z,19.77
2019-01-21T07:32:40.056Z,19.17
2019-01-21T07:38:17.927Z,18.70
2019-01-21T07:43:54.946Z,19.43
2019-01-21T07:49:23.003Z,19.03
2019-01-21T07:54:49.844Z,18.73
2019-01-21T08:00:05.951Z,19.90
2019-01-21T08:05:34.360Z,19.67
2019-01-21T08:11:26.222Z,18.03
2019-01-21T08:17:13.473Z,19.07
2019-01-21T08:22:54.371Z,21.05
2019-01-21T08:28:35.483Z,19.90
2019-01-21T08:34:17.730Z,19.07
2019-01-21T08:39:58.906Z,18.67
2019-01-21T08:45:28.268Z,19.87
2019-01-21T08:51:11.460Z,21.90
2019-01-21T08:56:36.067Z,22.45
2019-01-21T09:02:12.865Z,23.63
2019-01-21T09:08:13.048Z,24.07
2019-01-21T09:14:00.459Z,21.20
2019-01-21T09:19:50.397Z,19.43
2019-01-21T09:25:27.240Z,21.83
2019-01-21T09:30:54.745Z,22.63
2019-01-21T09:36:20.786Z,20.92
2019-01-21T09:41:57.769Z,20.87
2019-01-21T09:47:01.729Z,19.60
2019-01-21T09:52:08.279Z,21.17
2019-01-21T09:57:25.269Z,21.57
2019-01-21T10:02:42.272Z,22.83
2019-01-21T10:08:13.557Z,23.03
2019-01-21T10:13:54.227Z,23.93
2019-01-21T10:19:27.753Z,22.37
2019-01-21T10:25:04.798Z,23.33
2019-01-21T10:30:49.953Z,22.23
2019-01-21T10:36:29.119Z,25.50
2019-01-21T10:41:47.330Z,25.48
2019-01-21T10:47:22.744Z,25.17
2019-01-21T10:53:20.910Z,25.67
2019-01-21T10:59:00.624Z,24.83
2019-01-21T11:04:28.829Z,23.43
2019-01-21T11:09:48.640Z,23.90
2019-01-21T11:15:19.676Z,24.97
2019-01-21T11:21:05.821Z,24.07
2019-01-21T11:26:40.783Z,24.47
2019-01-21T11:32:04.336Z,23.33
2019-01-21T11:37:26.888Z,23.35
2019-01-21T11:42:44.901Z,24.77
2019-01-21T11:48:07.220Z,24.53
2019-01-21T11:53:40.094Z,21.77
2019-01-21T11:59:16.702Z,20.50
2019-01-21T12:05:05.742Z,21.30
2019-01-21T12:10:49.283Z,20.90
2019-01-21T12:16:28.689Z,21.90
2019-01-21T12:21:46.176Z,22.40
2019-01-21T12:27:28.732Z,23.00
2019-01-21T12:32:54.902Z,23.00
2019-01-21T12:38:25.265Z,22.80
2019-01-21T12:43:53.563Z,21.97
2019-01-21T12:49:41.272Z,20.83
2019-01-21T12:55:24.923Z,21.90
2019-01-21T13:01:07.308Z,22.93
2019-01-21T13:07:05.256Z,23.57
2019-01-21T13:12:37.557Z,22.13
2019-01-21T13:18:21.125Z,22.73
2019-01-21T13:23:38.266Z,23.60
2019-01-21T13:29:04.097Z,23.80
2019-01-21T13:34:31.914Z,24.00
2019-01-21T13:40:03.624Z,21.97
2019-01-21T13:45:35.072Z,22.10
2019-01-21T13:51:11.087Z,24.13
2019-01-21T13:56:47.558Z,22.30
2019-01-21T14:02:12.536Z,22.60
2019-01-21T14:07:54.219Z,22.67
2019-01-21T14:13:11.536Z,21.23
2019-01-21T14:18:47.527Z,21.97
2019-01-21T14:24:30.666Z,20.87
2019-01-21T14:29:46.156Z,20.73
2019-01-21T14:35:30.961Z,20.77
2019-01-21T14:41:00.756Z,19.40
2019-01-21T14:46:39.015Z,20.93
2019-01-21T14:52:27.312Z,18.93
2019-01-21T14:57:51.569Z,19.60
2019-01-21T15:03:36.343Z,21.17
2019-01-21T15:09:16.400Z,20.37
2019-01-21T15:14:47.373Z,20.70
2019-01-21T15:20:30.321Z,21.73
2019-01-21T15:26:15.339Z,23.13
2019-01-21T15:31:40.996Z,22.73
2019-01-21T15:37:07.277Z,22.27
2019-01-21T15:42:42.685Z,22.40
2019-01-21T15:48:10.032Z,22.87
2019-01-21T15:53:30.951Z,23.40
2019-01-21T15:59:16.189Z,23.40
2019-01-21T16:04:53.341Z,26.65
2019-01-21T16:10:38.805Z,25.00
2019-01-21T16:16:10.873Z,24.57
2019-01-21T16:21:42.626Z,24.20
2019-01-21T16:26:56.159Z,24.97
2019-01-21T16:32:27.773Z,25.90
2019-01-21T16:37:43.510Z,24.33
2019-01-21T16:42:48.203Z,24.07
2019-01-21T16:47:52.973Z,25.37
2019-01-21T16:52:57.891Z,25.37
2019-01-21T16:58:02.785Z,24.27
2019-01-21T17:03:07.814Z,24.17
2019-01-21T17:08:14.056Z,23.57
2019-01-21T17:13:26.587Z,24.10
2019-01-21T17:18:31.607Z,24.63
2019-01-21T17:23:36.560Z,26.50
2019-01-21T17:34:43.388Z,27.37
2019-01-21T17:39:48.148Z,24.80
2019-01-21T17:44:52.869Z,28.33
2019-01-21T17:49:57.629Z,27.48
2019-01-21T17:55:03.379Z,27.20
2019-01-21T18:00:12.386Z,28.90
2019-01-21T18:05:17.455Z,28.43
2019-01-21T18:10:22.377Z,27.27
2019-01-21T18:15:27.020Z,27.93
2019-01-21T18:20:31.704Z,27.70
2019-01-21T18:25:36.361Z,27.80
2019-01-21T18:30:41.177Z,28.53
2019-01-21T18:35:45.970Z,26.77
2019-01-21T18:40:50.754Z,25.87
2019-01-21T18:45:55.522Z,26.87
2019-01-21T18:51:00.209Z,27.53
2019-01-21T18:56:05.278Z,29.20
2019-01-21T19:01:21.575Z,28.17
2019-01-21T19:06:26.303Z,28.83
2019-01-21T19:11:31.125Z,30.13
2019-01-21T19:16:35.888Z,30.30
2019-01-21T19:21:41.533Z,30.33
2019-01-21T19:26:46.243Z,30.47
2019-01-21T19:31:51.014Z,29.70
2019-01-21T19:36:55.846Z,30.03
2019-01-21T19:42:00.548Z,31.83
2019-01-21T19:47:05.488Z,31.10
2019-01-21T19:52:10.245Z,30.37
2019-01-21T19:57:14.912Z,32.07
2019-01-21T20:02:19.608Z,31.90
2019-01-21T20:07:24.324Z,30.50
2019-01-21T20:12:29.040Z,30.47
2019-01-21T20:17:33.734Z,31.23
2019-01-21T20:22:38.516Z,29.47
2019-01-21T20:27:44.180Z,31.30
2019-01-21T20:32:49.632Z,31.23
2019-01-21T20:37:54.756Z,31.77
2019-01-21T20:42:59.547Z,29.97
2019-01-21T20:48:04.345Z,31.63
2019-01-21T20:53:09.175Z,31.53
2019-01-21T20:58:13.908Z,30.07
2019-01-21T21:03:18.877Z,30.67
2019-01-21T21:08:24.102Z,31.73
2019-01-21T21:13:29.427Z,31.80
2019-01-21T21:18:34.716Z,33.20
2019-01-21T21:23:40.051Z,32.23
2019-01-21T21:28:45.246Z,31.57
2019-01-21T21:33:50.675Z,31.90
2019-01-21T21:38:55.946Z,31.60
2019-01-21T21:44:01.401Z,33.17
2019-01-21T21:49:07.045Z,31.57
2019-01-21T21:54:12.263Z,32.58
2019-01-21T21:59:17.535Z,32.87
2019-01-21T22:04:24.573Z,32.93
2019-01-21T22:09:29.815Z,33.77
2019-01-21T22:14:35.140Z,34.70
2019-01-21T22:19:40.431Z,35.07
2019-01-21T22:24:45.626Z,34.43
2019-01-21T22:29:50.385Z,34.23
2019-01-21T22:34:55.155Z,35.07
2019-01-21T22:39:59.943Z,34.83
2019-01-21T22:45:05.484Z,34.63
2019-01-21T22:50:11.627Z,35.00
2019-01-21T22:55:16.428Z,34.90
2019-01-21T23:00:42.024Z,33.90
2019-01-21T23:05:47.357Z,33.60
2019-01-21T23:10:52.248Z,35.13
2019-01-21T23:15:57.013Z,34.30
2019-01-21T23:21:01.776Z,33.80
2019-01-21T23:26:06.853Z,34.43
2019-01-21T23:31:11.527Z,36.00
2019-01-21T23:36:16.278Z,34.13
2019-01-21T23:41:20.955Z,34.03
2019-01-21T23:46:26.040Z,34.33
2019-01-21T23:51:30.835Z,35.07
2019-01-21T23:56:35.593Z,34.80
